createdAt,value
2019-01-20T00:02:29.464Z,96539.02
2019-01-20T00:07:24.089Z,96539.80
2019-01-20T00:12:18.713Z,96544.05
2019-01-20T00:17:13.309Z,96538.08
2019-01-20T00:22:07.999Z,96539.83
2019-01-20T00:27:02.652Z,96530.32
2019-01-20T00:31:57.264Z,96529.38
2019-01-20T00:36:51.891Z,96532.28
2019-01-20T00:41:46.528Z,96526.85
2019-01-20T00:46:41.151Z,96536.14
2019-01-20T00:51:35.855Z,96527.53
2019-01-20T00:56:30.442Z,96527.58
2019-01-20T01:01:25.129Z,96524.89
2019-01-20T01:06:20.855Z,96530.53
2019-01-20T01:11:15.484Z,96529.25
2019-01-20T01:16:10.151Z,96530.57
2019-01-20T01:21:04.937Z,96532.19
2019-01-20T01:25:59.635Z,96533.84
2019-01-20T01:30:54.262Z,96533.87
2019-01-20T01:35:49.040Z,96530.53
2019-01-20T01:40:43.644Z,96533.76
2019-01-20T01:45:38.269Z,96534.55
2019-01-20T01:50:32.909Z,96535.83
2019-01-20T01:55:27.570Z,96540.19
2019-01-20T02:00:23.787Z,96536.14
2019-01-20T02:05:19.825Z,96543.86
2019-01-20T02:10:18.298Z,96540.05
2019-01-20T02:15:16.392Z,96528.64
2019-01-20T02:20:15.468Z,96536.84
2019-01-20T02:25:10.506Z,96539.75
2019-01-20T02:30:14.632Z,96546.19
2019-01-20T02:35:09.461Z,96540.23
2019-01-20T02:40:07.221Z,96533.30
2019-01-20T02:45:01.844Z,96538.78
2019-01-20T02:49:56.483Z,96533.95
2019-01-20T02:54:51.103Z,96521.74
2019-01-20T02:59:45.729Z,96525.91
2019-01-20T03:04:40.330Z,96533.95
2019-01-20T03:09:34.958Z,96525.75
2019-01-20T03:14:29.594Z,96522.70
2019-01-20T03:19:24.312Z,96525.89
2019-01-20T03:24:18.982Z,96527.17
2019-01-20T03:29:13.748Z,96522.37
2019-01-20T03:34:08.358Z,96525.75
2019-01-20T03:39:03.196Z,96522.37
2019-01-20T03:43:57.821Z,96525.58
2019-01-20T03:48:52.488Z,96528.49
2019-01-20T03:53:47.139Z,96528.65
2019-01-20T03:58:41.815Z,96523.82
2019-01-20T04:03:36.436Z,96522.38
2019-01-20T04:08:31.021Z,96518.51
2019-01-20T04:13:25.654Z,96519.79
2019-01-20T04:18:20.258Z,96516.27
2019-01-20T04:23:14.892Z,96514.62
2019-01-20T04:28:09.492Z,96505.48
2019-01-20T04:33:04.356Z,96505.30
2019-01-20T04:37:59.024Z,96509.03
2019-01-20T04:42:53.656Z,96504.67
2019-01-20T04:47:48.463Z,96508.20
2019-01-20T04:52:43.149Z,96502.25
2019-01-20T04:57:38.022Z,96505.80
2019-01-20T05:02:32.654Z,96511.27
2019-01-20T05:07:27.274Z,96516.11
2019-01-20T05:12:21.969Z,96514.66
2019-01-20T05:17:16.592Z,96515.13
2019-01-20T05:22:11.205Z,96517.23
2019-01-20T05:27:05.908Z,96514.98
2019-01-20T05:32:00.553Z,96520.44
2019-01-20T05:36:55.145Z,96510.62
2019-01-20T05:41:49.774Z,96519.17
2019-01-20T05:46:44.387Z,96513.70
2019-01-20T05:51:39.067Z,96523.66
2019-01-20T05:56:33.692Z,96524.30
2019-01-20T06:01:28.387Z,96513.05
2019-01-20T06:06:23.006Z,96522.20
2019-01-20T06:11:17.693Z,96522.22
2019-01-20T06:16:12.327Z,96528.16
2019-01-20T06:21:06.916Z,96533.63
2019-01-20T06:26:01.540Z,96539.75
2019-01-20T06:30:56.176Z,96539.12
2019-01-20T06:35:50.881Z,96540.89
2019-01-20T06:40:45.483Z,96546.68
2019-01-20T06:45:40.122Z,96557.45
2019-01-20T06:50:34.837Z,96547.46
2019-01-20T06:55:29.538Z,96548.45
2019-01-20T07:00:24.975Z,96553.60
2019-01-20T07:05:19.941Z,96551.34
2019-01-20T07:10:17.489Z,96549.89
2019-01-20T07:15:16.371Z,96557.28
2019-01-20T07:20:13.866Z,96567.09
2019-01-20T07:25:09.789Z,96575.16
2019-01-20T07:30:10.491Z,96577.41
2019-01-20T07:35:07.710Z,96585.12
2019-01-20T07:40:02.347Z,96586.58
2019-01-20T07:44:56.970Z,96577.39
2019-01-20T07:49:51.591Z,96581.90
2019-01-20T07:54:46.186Z,96584.80
2019-01-20T07:59:40.804Z,96581.55
2019-01-20T08:04:35.435Z,96583.18
2019-01-20T08:09:30.068Z,96592.84
2019-01-20T08:14:24.671Z,96594.62
2019-01-20T08:19:19.439Z,96595.87
2019-01-20T08:24:14.148Z,96598.23
2019-01-20T08:29:08.757Z,96596.95
2019-01-20T08:34:03.383Z,96599.48
2019-01-20T08:38:57.989Z,96609.44
2019-01-20T08:43:52.618Z,96608.28
2019-01-20T08:48:47.284Z,96612.91
2019-01-20T08:53:41.895Z,96618.34
2019-01-20T08:58:36.504Z,96621.19
2019-01-20T09:03:31.106Z,96615.38
2019-01-20T09:08:25.858Z,96621.42
2019-01-20T09:13:20.739Z,96636.23
2019-01-20T09:18:15.494Z,96633.80
2019-01-20T09:23:10.108Z,96638.09
2019-01-20T09:28:05.079Z,96647.49
2019-01-20T09:32:59.767Z,96650.72
2019-01-20T09:37:54.389Z,96647.05
2019-01-20T09:42:48.997Z,96650.97
2019-01-20T09:47:43.602Z,96652.74
2019-01-20T09:52:38.210Z,96660.91
2019-01-20T09:57:32.889Z,96663.34
2019-01-20T10:02:27.561Z,96664.72
2019-01-20T10:07:22.257Z,96674.45
2019-01-20T10:12:16.872Z,96666.73
2019-01-20T10:17:11.531Z,96662.70
2019-01-20T10:22:06.388Z,96658.39
2019-01-20T10:27:00.997Z,96658.08
2019-01-20T10:31:55.636Z,96653.35
2019-01-20T10:36:50.242Z,96659.61
2019-01-20T10:41:44.928Z,96650.64
2019-01-20T10:46:39.542Z,96649.78
2019-01-20T10:51:34.159Z,96644.60
2019-01-20T10:56:28.753Z,96642.63
2019-01-20T11:01:23.359Z,96644.09
2019-01-20T11:06:17.964Z,96648.04
2019-01-20T11:11:12.641Z,96639.19
2019-01-20T11:16:07.339Z,96641.31
2019-01-20T11:21:02.008Z,96645.89
2019-01-20T11:25:56.632Z,96645.39
2019-01-20T11:30:51.380Z,96650.23
2019-01-20T11:35:45.999Z,96651.55
2019-01-20T11:40:40.619Z,96642.36
2019-01-20T11:45:35.445Z,96635.11
2019-01-20T11:50:30.468Z,96640.48
2019-01-20T11:55:25.760Z,96638.20
2019-01-20T12:00:32.882Z,96630.11
2019-01-20T12:05:27.787Z,96632.34
2019-01-20T12:10:22.737Z,96621.70
2019-01-20T12:15:17.956Z,96620.85
2019-01-20T12:20:15.678Z,96606.02
2019-01-20T12:25:16.757Z,96597.33
2019-01-20T12:30:24.880Z,96598.25
2019-01-20T12:35:19.625Z,96595.29
2019-01-20T12:40:27.836Z,96594.22
2019-01-20T12:45:22.462Z,96593.44
2019-01-20T12:50:19.120Z,96600.38
2019-01-20T12:55:16.833Z,96602.76
2019-01-20T13:00:18.595Z,96594.91
2019-01-20T13:05:13.807Z,96591.33
2019-01-20T13:10:12.750Z,96591.09
2019-01-20T13:15:14.262Z,96601.65
2019-01-20T13:20:21.552Z,96592.85
2019-01-20T13:25:20.351Z,96587.48
2019-01-20T13:30:18.775Z,96591.08
2019-01-20T13:35:14.288Z,96597.23
2019-01-20T13:40:22.263Z,96590.84
2019-01-20T13:45:16.983Z,96600.16
2019-01-20T13:50:19.069Z,96597.83
2019-01-20T13:55:16.208Z,96605.48
2019-01-20T14:00:23.851Z,96605.45
2019-01-20T14:05:18.508Z,96601.70
2019-01-20T14:10:25.125Z,96608.46
2019-01-20T14:15:19.725Z,96613.20
2019-01-20T14:20:23.375Z,96611.21
2019-01-20T14:25:21.768Z,96608.67
2019-01-20T14:30:23.488Z,96614.66
2019-01-20T14:35:18.284Z,96619.27
2019-01-20T14:40:16.706Z,96627.00
2019-01-20T14:45:15.536Z,96625.24
2019-01-20T14:50:23.247Z,96623.36
2019-01-20T14:55:18.114Z,96625.41
2019-01-20T15:00:26.074Z,96624.87
2019-01-20T15:05:20.748Z,96633.88
2019-01-20T15:10:17.065Z,96637.30
2019-01-20T15:15:25.024Z,96640.58
2019-01-20T15:20:19.844Z,96636.98
2019-01-20T15:25:21.253Z,96631.52
2019-01-20T15:30:33.647Z,96638.66
2019-01-20T15:35:28.391Z,96639.62
2019-01-20T15:40:25.811Z,96642.81
2019-01-20T15:45:23.147Z,96647.66
2019-01-20T15:50:24.912Z,96645.45
2019-01-20T15:55:19.605Z,96649.59
2019-01-20T16:00:18.468Z,96662.76
2019-01-20T16:05:13.503Z,96663.08
2019-01-20T16:10:12.454Z,96665.56
2019-01-20T16:15:11.643Z,96659.30
2019-01-20T16:20:10.849Z,96666.55
2019-01-20T16:25:12.745Z,96668.44
2019-01-20T16:30:11.971Z,96663.45
2019-01-20T16:35:11.177Z,96675.69
2019-01-20T16:40:12.971Z,96674.62
2019-01-20T16:45:13.074Z,96677.98
2019-01-20T16:50:15.439Z,96680.11
2019-01-20T16:55:12.867Z,96681.18
2019-01-20T17:00:28.944Z,96683.03
2019-01-20T17:05:26.887Z,96686.12
2019-01-20T17:10:26.290Z,96688.30
2019-01-20T17:15:31.139Z,96697.16
2019-01-20T17:20:25.903Z,96689.08
2019-01-20T17:25:20.598Z,96702.70
2019-01-20T17:30:21.785Z,96702.77
2019-01-20T17:35:16.923Z,96713.95
2019-01-20T17:40:16.488Z,96708.02
2019-01-20T17:45:16.194Z,96706.09
2019-01-20T17:50:15.624Z,96714.31
2019-01-20T17:55:10.955Z,96717.22
2019-01-20T18:00:10.166Z,96725.97
2019-01-20T18:05:08.285Z,96722.48
2019-01-20T18:10:03.463Z,96725.74
2019-01-20T18:14:58.092Z,96732.20
2019-01-20T18:19:52.725Z,96728.18
2019-01-20T18:24:47.320Z,96743.53
2019-01-20T18:29:41.946Z,96738.83
2019-01-20T18:34:36.580Z,96744.97
2019-01-20T18:39:31.190Z,96753.39
2019-01-20T18:44:25.802Z,96748.23
2019-01-20T18:49:20.488Z,96756.45
2019-01-20T18:54:15.115Z,96763.02
2019-01-20T18:59:09.710Z,96766.92
2019-01-20T19:04:04.395Z,96771.61
2019-01-20T19:08:59.056Z,96775.48
2019-01-20T19:13:53.684Z,96775.16
2019-01-20T19:18:48.297Z,96770.90
2019-01-20T19:23:42.905Z,96774.92
2019-01-20T19:28:37.523Z,96787.91
2019-01-20T19:33:32.128Z,96791.19
2019-01-20T19:38:26.733Z,96791.50
2019-01-20T19:43:21.360Z,96798.95
2019-01-20T19:48:20.191Z,96796.37
2019-01-20T19:53:12.286Z,96792.02
2019-01-20T19:58:06.966Z,96794.59
2019-01-20T20:03:01.644Z,96801.83
2019-01-20T20:07:57.775Z,96810.27
2019-01-20T20:12:52.839Z,96806.09
2019-01-20T20:17:47.474Z,96808.98
2019-01-20T20:22:42.149Z,96820.42
2019-01-20T20:27:36.906Z,96819.46
2019-01-20T20:32:31.597Z,96826.75
2019-01-20T20:37:26.265Z,96831.58
2019-01-20T20:42:20.869Z,96843.22
2019-01-20T20:47:15.463Z,96846.28
2019-01-20T20:52:10.220Z,96850.97
2019-01-20T20:57:04.997Z,96849.99
2019-01-20T21:01:59.679Z,96852.57
2019-01-20T21:06:54.295Z,96857.08
2019-01-20T21:11:48.927Z,96853.22
2019-01-20T21:16:43.554Z,96863.20
2019-01-20T21:21:38.249Z,96862.53
2019-01-20T21:26:32.884Z,96868.19
2019-01-20T21:31:27.586Z,96865.89
2019-01-20T21:36:22.187Z,96871.09
2019-01-20T21:41:16.865Z,96872.55
2019-01-20T21:46:11.613Z,96875.75
2019-01-20T21:51:06.219Z,96879.13
2019-01-20T21:56:00.836Z,96875.09
2019-01-20T22:00:55.465Z,96882.67
2019-01-20T22:05:50.059Z,96889.30
2019-01-20T22:10:44.665Z,96880.55
2019-01-20T22:15:39.304Z,96898.78
2019-01-20T22:20:33.972Z,96904.13
2019-01-20T22:25:28.608Z,96909.28
2019-01-20T22:30:26.203Z,96912.44
2019-01-20T22:35:20.937Z,96915.25
2019-01-20T22:40:18.663Z,96916.98
2019-01-20T22:45:17.499Z,96913.72
2019-01-20T22:50:14.227Z,96919.55
2019-01-20T22:55:15.271Z,96921.85
2019-01-20T23:00:27.854Z,96916.49
2019-01-20T23:05:22.459Z,96918.45
2019-01-20T23:10:17.083Z,96921.69
2019-01-20T23:15:11.897Z,96917.30
2019-01-20T23:20:11.101Z,96920.19
2019-01-20T23:25:06.777Z,96926.45
2019-01-20T23:30:01.425Z,96919.56
2019-01-20T23:34:56.030Z,96915.03
2019-01-20T23:39:50.627Z,96915.64
2019-01-20T23:44:45.316Z,96909.82
2019-01-20T23:49:39.904Z,96918.42
2019-01-20T23:54:34.517Z,96917.95
2019-01-20T23:59:29.208Z,96927.56
